createdAt,value
2019-01-14T00:03:02.848Z,99454.05
2019-01-14T00:06:10.211Z,99458.12
2019-01-14T00:09:13.001Z,99457.09
2019-01-14T00:12:17.066Z,99471.14
2019-01-14T00:15:21.119Z,99501.83
2019-01-14T00:18:25.140Z,99496.16
2019-01-14T00:21:29.174Z,99509.78
2019-01-14T00:24:33.065Z,99502.27
2019-01-14T00:27:36.992Z,99514.13
2019-01-14T00:30:40.777Z,99511.63
2019-01-14T00:33:44.723Z,99530.80
2019-01-14T00:36:48.656Z,99528.59
2019-01-14T00:39:52.573Z,99543.03
2019-01-14T00:42:56.456Z,99540.41
2019-01-14T00:46:00.335Z,99556.66
2019-01-14T00:49:04.909Z,99564.54
2019-01-14T00:52:08.906Z,99557.62
2019-01-14T00:55:13.280Z,99572.73
2019-01-14T00:58:17.154Z,99574.10
2019-01-14T01:01:21.210Z,99590.10
2019-01-14T01:04:25.081Z,99592.08
2019-01-14T01:07:28.919Z,99579.30
2019-01-14T01:10:32.718Z,99587.55
2019-01-14T01:13:36.525Z,99593.65
2019-01-14T01:16:40.764Z,99595.86
2019-01-14T01:19:44.596Z,99606.22
2019-01-14T01:22:48.566Z,99599.22
2019-01-14T01:25:52.439Z,99606.20
2019-01-14T01:28:56.220Z,99592.67
2019-01-14T01:32:00.106Z,99593.22
2019-01-14T01:35:04.876Z,99610.78
2019-01-14T01:38:08.850Z,99613.50
2019-01-14T01:41:12.997Z,99604.20
2019-01-14T01:44:16.931Z,99605.39
2019-01-14T01:47:20.837Z,99607.28
2019-01-14T01:50:27.108Z,99620.30
2019-01-14T01:53:30.999Z,99634.02
2019-01-14T01:56:35.277Z,99630.96
2019-01-14T01:59:39.156Z,99645.73
2019-01-14T02:02:43.121Z,99644.34
2019-01-14T02:05:47.006Z,99673.44
2019-01-14T02:08:50.878Z,99690.71
2019-01-14T02:11:54.755Z,99717.02
2019-01-14T02:14:58.556Z,99733.33
2019-01-14T02:18:02.426Z,99720.47
2019-01-14T02:21:06.370Z,99718.55
2019-01-14T02:24:10.155Z,99729.87
2019-01-14T02:27:13.976Z,99731.59
2019-01-14T02:30:22.973Z,99755.17
2019-01-14T02:33:26.873Z,99761.61
2019-01-14T02:36:30.759Z,99745.59
2019-01-14T02:39:34.672Z,99755.90
2019-01-14T02:42:38.464Z,99743.64
2019-01-14T02:45:42.377Z,99760.66
2019-01-14T02:48:46.930Z,99777.17
2019-01-14T02:51:50.780Z,99771.05
2019-01-14T02:54:54.528Z,99775.91
2019-01-14T02:57:58.364Z,99773.44
2019-01-14T03:01:02.300Z,99792.56
2019-01-14T03:04:06.188Z,99793.92
2019-01-14T03:07:11.614Z,99792.56
2019-01-14T03:10:15.566Z,99793.40
2019-01-14T03:13:19.359Z,99791.21
2019-01-14T03:16:23.430Z,99791.34
2019-01-14T03:19:27.297Z,99780.45
2019-01-14T03:22:31.178Z,99791.34
2019-01-14T03:25:34.976Z,99796.16
2019-01-14T03:28:38.927Z,99798.73
2019-01-14T03:31:42.756Z,99820.02
2019-01-14T03:34:46.560Z,99823.34
2019-01-14T03:37:50.436Z,99811.96
2019-01-14T03:40:54.309Z,99823.30
2019-01-14T03:43:58.202Z,99839.02
2019-01-14T03:47:02.114Z,99840.70
2019-01-14T03:50:09.686Z,99840.23
2019-01-14T03:53:13.522Z,99846.73
2019-01-14T03:56:17.472Z,99841.44
2019-01-14T03:59:21.570Z,99862.83
2019-01-14T04:02:25.428Z,99864.59
2019-01-14T04:05:29.456Z,99877.24
2019-01-14T04:08:33.332Z,99879.11
2019-01-14T04:11:37.413Z,99884.63
2019-01-14T04:14:41.403Z,99903.83
2019-01-14T04:17:46.267Z,99901.72
2019-01-14T04:20:50.130Z,99907.33
2019-01-14T04:23:54.277Z,99901.77
2019-01-14T04:26:59.636Z,99899.23
2019-01-14T04:30:05.039Z,99898.86
2019-01-14T04:33:08.915Z,99907.17
2019-01-14T04:36:12.806Z,99904.19
2019-01-14T04:39:16.948Z,99916.05
2019-01-14T04:42:20.854Z,99923.41
2019-01-14T04:45:24.786Z,99932.66
2019-01-14T04:48:28.766Z,99944.48
2019-01-14T04:51:32.726Z,99937.01
2019-01-14T04:54:36.634Z,99931.27
2019-01-14T04:57:40.618Z,99949.14
2019-01-14T05:00:44.652Z,99967.59
2019-01-14T05:03:48.531Z,99964.05
2019-01-14T05:06:52.412Z,99978.07
2019-01-14T05:09:56.313Z,99977.33
2019-01-14T05:13:00.176Z,99999.23
2019-01-14T05:16:04.052Z,99992.33
2019-01-14T05:19:07.914Z,100029.89
2019-01-14T05:22:11.894Z,100000.30
2019-01-14T05:25:15.765Z,99996.03
2019-01-14T05:28:19.586Z,100004.81
2019-01-14T05:31:23.511Z,99996.97
2019-01-14T05:34:27.313Z,100008.28
2019-01-14T05:37:37.346Z,100013.19
2019-01-14T05:40:36.807Z,100013.21
2019-01-14T05:43:40.762Z,100011.02
2019-01-14T05:46:45.185Z,100015.41
2019-01-14T05:49:49.060Z,100027.66
2019-01-14T05:52:52.949Z,100029.35
2019-01-14T05:55:56.922Z,100021.55
2019-01-14T05:59:00.719Z,100028.49
2019-01-14T06:02:04.655Z,100045.48
2019-01-14T06:05:08.712Z,100038.03
2019-01-14T06:08:12.574Z,100041.05
2019-01-14T06:11:16.455Z,100041.06
2019-01-14T06:14:20.365Z,100049.84
2019-01-14T06:17:24.313Z,100051.58
2019-01-14T06:20:29.159Z,100062.48
2019-01-14T06:23:33.034Z,100065.08
2019-01-14T06:26:36.971Z,100063.38
2019-01-14T06:29:40.843Z,100073.78
2019-01-14T06:32:44.624Z,100072.50
2019-01-14T06:35:48.606Z,100080.34
2019-01-14T06:38:52.482Z,100079.84
2019-01-14T06:41:56.380Z,100084.17
2019-01-14T06:45:00.179Z,100084.23
2019-01-14T06:48:04.052Z,100105.67
2019-01-14T06:51:07.986Z,100104.37
2019-01-14T06:54:11.878Z,100097.43
2019-01-14T06:57:15.809Z,100097.45
2019-01-14T07:00:25.587Z,100109.20
2019-01-14T07:03:29.429Z,100113.14
2019-01-14T07:06:33.301Z,100109.19
2019-01-14T07:09:37.151Z,100131.00
2019-01-14T07:12:41.329Z,100129.64
2019-01-14T07:15:45.224Z,100132.24
2019-01-14T07:18:49.079Z,100133.09
2019-01-14T07:21:52.959Z,100143.56
2019-01-14T07:24:56.779Z,100148.80
2019-01-14T07:28:00.559Z,100156.71
2019-01-14T07:31:04.638Z,100154.55
2019-01-14T07:34:08.428Z,100160.66
2019-01-14T07:37:12.362Z,100158.91
2019-01-14T07:40:16.650Z,100168.50
2019-01-14T07:43:20.553Z,100188.52
2019-01-14T07:46:24.430Z,100192.90
2019-01-14T07:49:28.503Z,100205.92
2019-01-14T07:52:32.827Z,100209.87
2019-01-14T07:55:36.692Z,100216.38
2019-01-14T07:58:40.871Z,100229.92
2019-01-14T08:01:44.665Z,100222.45
2019-01-14T08:04:48.549Z,100216.85
2019-01-14T08:07:52.526Z,100220.73
2019-01-14T08:10:56.329Z,100220.31
2019-01-14T08:14:00.193Z,100219.01
2019-01-14T08:17:04.591Z,100232.53
2019-01-14T08:20:09.736Z,100240.84
2019-01-14T08:23:13.811Z,100228.20
2019-01-14T08:26:17.602Z,100246.93
2019-01-14T08:29:21.503Z,100264.81
2019-01-14T08:32:25.434Z,100269.16
2019-01-14T08:35:29.301Z,100272.61
2019-01-14T08:38:33.085Z,100268.25
2019-01-14T08:41:39.093Z,100264.34
2019-01-14T08:44:44.108Z,100262.10
2019-01-14T08:47:48.184Z,100274.78
2019-01-14T08:50:52.009Z,100287.00
2019-01-14T08:53:55.859Z,100289.17
2019-01-14T08:56:59.964Z,100299.64
2019-01-14T09:00:05.197Z,100324.94
2019-01-14T09:03:09.088Z,100324.97
2019-01-14T09:06:13.021Z,100314.49
2019-01-14T09:09:16.910Z,100323.20
2019-01-14T09:12:20.782Z,100329.31
2019-01-14T09:15:24.739Z,100326.25
2019-01-14T09:18:28.679Z,100320.14
2019-01-14T09:21:32.563Z,100324.50
2019-01-14T09:24:36.528Z,100321.05
2019-01-14T09:27:40.494Z,100320.17
2019-01-14T09:30:44.575Z,100331.07
2019-01-14T09:33:48.628Z,100329.31
2019-01-14T09:36:52.483Z,100327.56
2019-01-14T09:39:56.456Z,100324.51
2019-01-14T09:43:00.341Z,100344.56
2019-01-14T09:46:05.762Z,100345.00
2019-01-14T09:49:09.614Z,100354.58
2019-01-14T09:52:13.524Z,100352.37
2019-01-14T09:55:19.219Z,100355.02
2019-01-14T09:58:23.104Z,100367.25
2019-01-14T10:01:26.884Z,100372.48
2019-01-14T10:04:30.691Z,100368.55
2019-01-14T10:07:34.563Z,100384.24
2019-01-14T10:10:38.506Z,100369.42
2019-01-14T10:13:42.563Z,100368.53
2019-01-14T10:16:46.622Z,100379.87
2019-01-14T10:19:50.561Z,100375.97
2019-01-14T10:22:54.385Z,100387.73
2019-01-14T10:25:59.313Z,100389.48
2019-01-14T10:29:03.101Z,100389.90
2019-01-14T10:32:06.975Z,100404.75
2019-01-14T10:35:11.037Z,100418.72
2019-01-14T10:38:14.895Z,100390.33
2019-01-14T10:41:18.879Z,100397.77
2019-01-14T10:44:22.777Z,100408.68
2019-01-14T10:47:26.665Z,100413.02
2019-01-14T10:50:30.521Z,100415.66
2019-01-14T10:53:34.412Z,100419.58
2019-01-14T10:56:38.291Z,100412.61
2019-01-14T10:59:42.640Z,100420.88
2019-01-14T11:02:48.138Z,100430.47
2019-01-14T11:05:52.098Z,100424.81
2019-01-14T11:08:58.843Z,100413.02
2019-01-14T11:12:02.293Z,100426.55
2019-01-14T11:15:08.793Z,100426.98
2019-01-14T11:18:12.832Z,100433.97
2019-01-14T11:21:16.710Z,100467.97
2019-01-14T11:24:20.680Z,100457.96
2019-01-14T11:27:24.940Z,100420.88
2019-01-14T11:30:31.350Z,100434.80
2019-01-14T11:33:39.173Z,100456.59
2019-01-14T11:36:43.152Z,100442.61
2019-01-14T11:39:48.042Z,100460.89
2019-01-14T11:42:51.924Z,100451.32
2019-01-14T11:45:55.894Z,100467.06
2019-01-14T11:48:59.846Z,100489.28
2019-01-14T11:52:03.802Z,100475.37
2019-01-14T11:55:07.981Z,100471.48
2019-01-14T11:58:11.952Z,100469.31
2019-01-14T12:01:16.266Z,100477.16
2019-01-14T12:04:20.046Z,100477.58
2019-01-14T12:07:24.147Z,100479.79
2019-01-14T12:10:28.075Z,100480.22
2019-01-14T12:13:31.946Z,100482.39
2019-01-14T12:16:37.296Z,100482.81
2019-01-14T12:19:41.280Z,100473.19
2019-01-14T12:22:45.446Z,100479.30
2019-01-14T12:25:49.936Z,100485.83
2019-01-14T12:28:55.265Z,100488.86
2019-01-14T12:31:59.317Z,100484.50
2019-01-14T12:35:04.679Z,100494.53
2019-01-14T12:38:10.208Z,100503.27
2019-01-14T12:41:14.017Z,100511.13
2019-01-14T12:44:18.086Z,100507.17
2019-01-14T12:47:22.045Z,100510.69
2019-01-14T12:50:26.426Z,100521.17
2019-01-14T12:53:30.604Z,100522.92
2019-01-14T12:56:34.477Z,100513.33
2019-01-14T12:59:38.846Z,100535.15
2019-01-14T13:02:42.912Z,100553.93
2019-01-14T13:05:46.745Z,100529.92
2019-01-14T13:08:50.705Z,100539.53
2019-01-14T13:11:54.840Z,100530.83
2019-01-14T13:14:59.140Z,100545.67
2019-01-14T13:18:05.399Z,100533.89
2019-01-14T13:21:08.486Z,100533.90
2019-01-14T13:24:12.392Z,100549.59
2019-01-14T13:27:16.292Z,100543.91
2019-01-14T13:30:30.874Z,100548.30
2019-01-14T13:33:34.701Z,100556.14
2019-01-14T13:36:38.605Z,100567.08
2019-01-14T13:39:42.425Z,100562.26
2019-01-14T13:42:46.433Z,100570.13
2019-01-14T13:45:52.501Z,100576.21
2019-01-14T13:48:55.816Z,100576.66
2019-01-14T13:52:00.105Z,100575.36
2019-01-14T13:55:05.451Z,100574.91
2019-01-14T13:58:09.656Z,100583.64
2019-01-14T14:01:13.463Z,100584.52
2019-01-14T14:04:18.270Z,100594.56
2019-01-14T14:07:22.384Z,100598.50
2019-01-14T14:10:35.207Z,100600.67
2019-01-14T14:13:39.339Z,100600.68
2019-01-14T14:16:43.492Z,100602.44
2019-01-14T14:19:47.316Z,100614.64
2019-01-14T14:22:51.314Z,100614.66
2019-01-14T14:25:55.225Z,100617.71
2019-01-14T14:28:59.155Z,100629.52
2019-01-14T14:32:03.537Z,100621.63
2019-01-14T14:35:07.556Z,100622.09
2019-01-14T14:38:11.534Z,100629.52
2019-01-14T14:41:15.445Z,100636.51
2019-01-14T14:44:19.408Z,100639.12
2019-01-14T14:47:23.237Z,100643.05
2019-01-14T14:50:27.127Z,100653.52
2019-01-14T14:53:31.018Z,100652.66
2019-01-14T14:56:34.887Z,100654.84
2019-01-14T14:59:38.792Z,100672.77
2019-01-14T15:02:42.674Z,100660.11
2019-01-14T15:05:46.562Z,100668.84
2019-01-14T15:08:50.365Z,100668.41
2019-01-14T15:11:54.258Z,100674.08
2019-01-14T15:14:58.758Z,100675.84
2019-01-14T15:18:02.642Z,100681.08
2019-01-14T15:21:07.012Z,100679.75
2019-01-14T15:24:10.826Z,100690.22
2019-01-14T15:27:14.661Z,100681.05
2019-01-14T15:30:23.962Z,100683.67
2019-01-14T15:33:27.872Z,100695.03
2019-01-14T15:36:31.759Z,100689.77
2019-01-14T15:39:35.660Z,100698.52
2019-01-14T15:42:39.603Z,100702.89
2019-01-14T15:45:43.428Z,100714.65
2019-01-14T15:48:47.338Z,100724.27
2019-01-14T15:51:51.170Z,100726.44
2019-01-14T15:54:54.995Z,100729.05
2019-01-14T15:57:58.976Z,100729.09
2019-01-14T16:01:02.780Z,100730.83
2019-01-14T16:04:06.702Z,100736.50
2019-01-14T16:07:10.679Z,100743.47
2019-01-14T16:10:17.365Z,100739.58
2019-01-14T16:13:21.292Z,100738.66
2019-01-14T16:16:25.087Z,100739.53
2019-01-14T16:19:29.828Z,100748.68
2019-01-14T16:22:33.709Z,100743.03
2019-01-14T16:25:37.667Z,100745.20
2019-01-14T16:28:41.563Z,100739.05
2019-01-14T16:31:45.425Z,100743.88
2019-01-14T16:34:49.351Z,100740.02
2019-01-14T16:37:53.299Z,100751.33
2019-01-14T16:40:57.186Z,100751.80
2019-01-14T16:44:00.995Z,100741.32
2019-01-14T16:47:04.949Z,100751.75
2019-01-14T16:50:10.077Z,100756.55
2019-01-14T16:53:13.959Z,100763.11
2019-01-14T16:56:17.877Z,100763.12
2019-01-14T16:59:21.661Z,100762.63
2019-01-14T17:02:25.564Z,100772.66
2019-01-14T17:05:29.444Z,100778.78
2019-01-14T17:08:33.279Z,100782.74
2019-01-14T17:11:37.205Z,100779.27
2019-01-14T17:14:41.028Z,100783.63
2019-01-14T17:17:44.903Z,100785.81
2019-01-14T17:20:49.316Z,100790.21
2019-01-14T17:23:53.291Z,100798.95
2019-01-14T17:26:57.617Z,100784.95
2019-01-14T17:30:01.417Z,100794.11
2019-01-14T17:33:05.610Z,100799.78
2019-01-14T17:36:09.457Z,100812.87
2019-01-14T17:39:13.290Z,100819.84
2019-01-14T17:42:17.957Z,100829.91
2019-01-14T17:45:22.089Z,100829.05
2019-01-14T17:48:25.872Z,100841.28
2019-01-14T17:51:29.768Z,100833.45
2019-01-14T17:54:33.553Z,100850.50
2019-01-14T17:57:37.456Z,100851.38
2019-01-14T18:00:41.265Z,100851.85
2019-01-14T18:03:45.171Z,100858.38
2019-01-14T18:06:49.120Z,100864.05
2019-01-14T18:09:53.003Z,100851.41
2019-01-14T18:12:57.032Z,100851.42
2019-01-14T18:16:00.991Z,100861.48
2019-01-14T18:19:04.986Z,100859.70
2019-01-14T18:22:08.953Z,100868.85
2019-01-14T18:25:13.212Z,100863.62
2019-01-14T18:28:17.158Z,100857.92
2019-01-14T18:31:21.078Z,100850.48
2019-01-14T18:34:24.958Z,100848.77
2019-01-14T18:37:28.953Z,100842.66
2019-01-14T18:40:34.085Z,100857.06
2019-01-14T18:43:38.191Z,100853.55
2019-01-14T18:46:42.045Z,100854.88
2019-01-14T18:49:45.921Z,100848.78
2019-01-14T18:52:49.908Z,100843.58
2019-01-14T18:55:53.800Z,100849.70
2019-01-14T18:58:57.664Z,100864.16
2019-01-14T19:02:01.531Z,100861.06
2019-01-14T19:05:05.788Z,100865.44
2019-01-14T19:08:09.666Z,100864.13
2019-01-14T19:11:13.627Z,100876.39
2019-01-14T19:14:17.529Z,100875.09
2019-01-14T19:17:21.405Z,100875.12
2019-01-14T19:20:27.835Z,100888.23
2019-01-14T19:23:31.717Z,100883.88
2019-01-14T19:26:35.685Z,100883.02
2019-01-14T19:29:39.558Z,100894.81
2019-01-14T19:32:43.528Z,100894.77
2019-01-14T19:35:47.521Z,100901.37
2019-01-14T19:38:51.335Z,100906.18
2019-01-14T19:41:55.137Z,100897.87
2019-01-14T19:44:59.047Z,100896.08
2019-01-14T19:48:02.982Z,100907.02
2019-01-14T19:51:06.898Z,100914.48
2019-01-14T19:54:10.811Z,100918.86
2019-01-14T19:57:16.032Z,100922.36
2019-01-14T20:00:39.804Z,100935.91
2019-01-14T20:03:43.693Z,100941.16
2019-01-14T20:06:48.853Z,100947.30
2019-01-14T20:09:52.825Z,100938.99
2019-01-14T20:12:57.228Z,100945.99
2019-01-14T20:16:01.396Z,100948.64
2019-01-14T20:19:05.437Z,100963.52
2019-01-14T20:22:09.330Z,100958.30
2019-01-14T20:25:13.387Z,100966.61
2019-01-14T20:28:17.259Z,100977.53
2019-01-14T20:31:21.193Z,100976.67
2019-01-14T20:34:25.054Z,100980.59
2019-01-14T20:37:28.926Z,100983.67
2019-01-14T20:40:32.726Z,100982.78
2019-01-14T20:43:36.584Z,100996.35
2019-01-14T20:46:41.108Z,100998.52
2019-01-14T20:49:44.989Z,101005.10
2019-01-14T20:52:48.884Z,101005.96
2019-01-14T20:55:52.858Z,101011.23
2019-01-14T20:58:56.674Z,101005.54
2019-01-14T21:02:00.503Z,101015.15
2019-01-14T21:05:05.221Z,101009.05
2019-01-14T21:08:09.273Z,101016.05
2019-01-14T21:11:13.167Z,101004.27
2019-01-14T21:14:17.036Z,101011.28
2019-01-14T21:17:21.056Z,101017.40
2019-01-14T21:20:25.980Z,101030.08
2019-01-14T21:23:29.909Z,101029.22
2019-01-14T21:26:33.976Z,101028.33
2019-01-14T21:29:37.906Z,101034.46
2019-01-14T21:32:41.852Z,101030.50
2019-01-14T21:35:45.732Z,101035.29
2019-01-14T21:38:49.683Z,101037.04
2019-01-14T21:41:53.588Z,101041.42
2019-01-14T21:44:57.481Z,101046.71
2019-01-14T21:48:01.359Z,101041.05
2019-01-14T21:51:05.639Z,101044.53
2019-01-14T21:54:09.590Z,101037.94
2019-01-14T21:57:13.586Z,101035.39
2019-01-14T22:00:22.488Z,101034.95
2019-01-14T22:03:26.355Z,101037.09
2019-01-14T22:06:30.227Z,101037.09
2019-01-14T22:09:34.107Z,101040.61
2019-01-14T22:12:38.066Z,101043.20
2019-01-14T22:15:42.072Z,101045.87
2019-01-14T22:18:45.955Z,101038.43
2019-01-14T22:21:49.846Z,101031.02
2019-01-14T22:24:53.740Z,101039.77
2019-01-14T22:27:57.743Z,101043.28
2019-01-14T22:31:01.721Z,101034.11
2019-01-14T22:34:05.702Z,101038.49
2019-01-14T22:37:09.667Z,101037.64
2019-01-14T22:40:13.925Z,101045.09
2019-01-14T22:43:17.803Z,101039.83
2019-01-14T22:46:21.792Z,101049.05
2019-01-14T22:49:25.985Z,101039.83
2019-01-14T22:52:29.973Z,101052.12
2019-01-14T22:55:33.866Z,101046.42
2019-01-14T22:58:37.953Z,101049.48
2019-01-14T23:01:47.099Z,101050.34
2019-01-14T23:04:50.987Z,101052.09
2019-01-14T23:07:54.872Z,101054.28
2019-01-14T23:10:58.844Z,101074.89
2019-01-14T23:14:02.823Z,101063.50
2019-01-14T23:17:06.759Z,101064.34
2019-01-14T23:20:10.922Z,101053.38
2019-01-14T23:23:14.892Z,101046.38
2019-01-14T23:26:18.883Z,101050.29
2019-01-14T23:29:22.874Z,101041.98
2019-01-14T23:32:26.760Z,101044.14
2019-01-14T23:35:30.647Z,101050.30
2019-01-14T23:38:34.524Z,101052.50
2019-01-14T23:41:38.477Z,101046.75
2019-01-14T23:44:42.534Z,101037.14
2019-01-14T23:47:46.546Z,101042.39
2019-01-14T23:50:50.770Z,101030.09
2019-01-14T23:53:54.759Z,101028.76
2019-01-14T23:56:58.746Z,101031.84
